ahouseinthehills.com alexa rank chart, ahouseinthehills.com alexa rank daily changes

ahouseinthehills.com alexa rank chart, ahouseinthehills.com alexa rank daily changes

ahouseinthehills.com
Actual rank:
857 613

RANK HISTORY

Date Rank Diff
2017/10/16 857 613 -12 628
2017/10/14 870 241 -1 458
2017/10/13 871 699 -26 201
2017/10/12 897 900 +9 174
2017/10/11 888 726 -38 541
2017/10/10 927 267 +18 765
2017/10/09 908 502 -4 697
2017/10/08 913 199 +13 005
2017/10/07 900 194 +17 026
2017/10/06 883 168 -21 988
2017/10/05 905 156 -23 758
2017/10/04 928 914 -23 952
2017/10/03 952 866 +66 443
2017/10/02 886 423 +32 201
2017/10/01 854 222 -57 665
2017/09/30 911 887 -590
2017/09/29 912 477 +22 122
2017/09/28 890 355 +5 237
2017/09/27 885 118 -17 159
2017/09/26 902 277 +5 781
2017/09/25 896 496 -29 033
2017/09/24 925 529 -1 470
2017/09/23 926 999 -71 727
2017/09/15 998 726 +73 490
2017/09/14 925 236 +74 419
2017/09/13 850 817 +23 109
2017/09/12 827 708 -12 027
2017/09/11 839 735 +73 501
2017/09/10 766 234 -33 887
2017/09/09 800 121 -20 847
2017/09/08 820 968 -2 734
2017/09/07 823 702 +12 243
2017/09/06 811 459 -30 987
2017/09/05 842 446 +17 749
2017/09/04 824 697 +100 027
2017/09/03 724 670 +32 356
2017/09/02 692 314 -10 127
2017/09/01 702 441 -3 691
2017/08/31 706 132 +8 717
2017/08/30 697 415 +316
2017/08/29 697 099 -13 852
2017/08/28 710 951 -3 734
2017/08/27 714 685 +16 863
2017/08/26 697 822 +6 018
2017/08/25 691 804 +17 991
2017/08/24 673 813 +17 807
2017/08/23 656 006 -7 032
2017/08/22 663 038 +15 381
2017/08/21 647 657 +6 418
2017/08/20 641 239 -11 088
2017/08/19 652 327 -262
2017/08/18 652 589 +30 372
2017/08/17 622 217

WIDGET FOR YOUR SITE

DOMAINS WITH THE NEAREST RANK

Domain Rank
energyupgradeca.org 857 608
aup.nl 857 609
smilok.ru 857 610
hsin.hr 857 611
hwacom.com 857 612
ahouseinthehills.com 857 613
123moviess.is 857 614
bonniesmcdougall.squarespace.com 857 615
oxiteno.com 857 616
merclondon.ru 857 617
livecamgirls.xxx 857 618

DOMAINS WITH THE NEAREST RANK BY TLD .com

Domain Rank
relianceco.com 857 597
canmuseum.com 857 599
otamegane.com 857 604
vagrantsoftheworld.com 857 606
hwacom.com 857 612
ahouseinthehills.com 857 613
oxiteno.com 857 616
athiwat.com 857 619
grupopastora.com 857 620
miniofkennesaw.com 857 621
blp-network.com 857 623